Terminal Aerodrome Forecast
Issued by NWS

Home | Current Version | Previous Version | Text Only | Print | Product List | Glossary On
Versions: 1 2 3 4 5 6 7 8 9 10 11 12 13 14 15 16 17 18 19
000
FTUS46 KSGX 051734
TAFCRQ
TAF
KCRQ 051734Z 0518/0618 VRB04KT P6SM OVC035
     FM051900 23011KT P6SM OVC035
     FM060300 VRB05KT P6SM VCSH BKN025 BKN050
     FM060600 VRB05KT P6SM -SHRA BKN025 OVC040
     FM061730 23010KT P6SM -SHRA BKN025 OVC035=

USA.gov is the U.S. government's official web portal to all federal, state and local government web resources and services.